createdAt,value
2023-03-26T00:08:23.176Z,100047.59
2023-03-26T00:18:30.800Z,100044.38
2023-03-26T00:28:35.183Z,100038.06
2023-03-26T01:02:59.169Z,99994.72
2023-03-26T01:13:02.955Z,99979.34
2023-03-26T01:23:08.351Z,99967.38
2023-03-26T01:33:23.799Z,99957.09
2023-03-26T01:43:33.171Z,99941.38
2023-03-26T01:53:39.186Z,99925.97
2023-03-26T02:03:47.913Z,99920.09
2023-03-26T02:13:53.352Z,99898.53
2023-03-26T02:24:03.233Z,99878.50
2023-03-26T02:34:11.215Z,99857.69
2023-03-26T02:44:16.596Z,99846.28
2023-03-26T02:54:36.896Z,99849.28
2023-03-26T03:05:01.904Z,99825.94
2023-03-26T03:15:11.831Z,99804.72
2023-03-26T03:25:17.596Z,99790.16
2023-03-26T03:35:23.632Z,99777.47
2023-03-26T03:45:31.537Z,99765.53
2023-03-26T03:55:54.070Z,99732.22
2023-03-26T04:06:00.599Z,99721.66
2023-03-26T04:16:06.834Z,99706.28
2023-03-26T04:26:16.853Z,99704.91
2023-03-26T04:36:40.878Z,99674.59
2023-03-26T04:46:46.100Z,99669.63
2023-03-26T04:57:00.422Z,99640.84
2023-03-26T05:07:09.684Z,99612.75
2023-03-26T05:17:21.372Z,99619.94
2023-03-26T05:27:25.058Z,99616.38
2023-03-26T05:37:32.167Z,99593.09
2023-03-26T05:47:41.089Z,99576.00
2023-03-26T05:57:45.877Z,99560.34
2023-03-26T06:08:15.903Z,99529.19
2023-03-26T06:18:27.501Z,99523.28
2023-03-26T06:28:52.590Z,99512.31
2023-03-26T06:39:32.614Z,99522.63
2023-03-26T06:49:53.919Z,99501.66
2023-03-26T07:00:17.935Z,99493.38
2023-03-26T07:10:39.226Z,99474.03
2023-03-26T07:20:48.014Z,99468.63
2023-03-26T07:31:17.474Z,99452.56
2023-03-26T07:41:35.982Z,99437.78
2023-03-26T07:51:58.974Z,99417.19
2023-03-26T08:02:48.515Z,99416.16
2023-03-26T08:13:26.432Z,99399.50
2023-03-26T08:23:50.912Z,99396.22
2023-03-26T08:33:54.099Z,99398.09
2023-03-26T08:44:40.846Z,99388.59
2023-03-26T08:55:10.633Z,99362.59
2023-03-26T09:05:46.590Z,99344.03
2023-03-26T09:16:28.058Z,99337.94
2023-03-26T09:26:43.825Z,99321.59
2023-03-26T09:36:55.680Z,99295.28
2023-03-26T09:47:25.603Z,99280.22
2023-03-26T09:57:49.518Z,99263.94
2023-03-26T10:08:11.336Z,99254.56
2023-03-26T10:18:29.902Z,99252.59
2023-03-26T10:28:52.126Z,99242.31
2023-03-26T10:39:04.988Z,99237.09
2023-03-26T10:49:40.736Z,99218.25
2023-03-26T10:59:45.431Z,99209.88
2023-03-26T11:09:59.605Z,99208.72
2023-03-26T11:20:09.495Z,99181.31
2023-03-26T11:30:26.181Z,99189.47
2023-03-26T11:40:34.844Z,99197.25
2023-03-26T11:50:43.798Z,99204.00
2023-03-26T12:00:48.876Z,99219.09
2023-03-26T12:11:05.316Z,99218.63
2023-03-26T12:21:12.775Z,99212.63
2023-03-26T12:31:19.504Z,99215.66
2023-03-26T12:43:40.449Z,99224.63
2023-03-26T12:52:16.194Z,99231.59
2023-03-26T13:02:43.957Z,99230.94
2023-03-26T13:12:58.336Z,99233.72
2023-03-26T13:23:10.484Z,99233.03
2023-03-26T13:33:33.512Z,99239.72
2023-03-26T13:43:50.665Z,99230.56
2023-03-26T14:04:57.982Z,99252.13
2023-03-26T14:15:04.415Z,99251.41
2023-03-26T14:25:26.595Z,99263.66
2023-03-26T14:35:37.819Z,99267.78
2023-03-26T14:46:04.444Z,99266.22
2023-03-26T14:56:42.633Z,99282.28
2023-03-26T15:07:14.263Z,99293.09
2023-03-26T15:17:55.379Z,99292.84
2023-03-26T15:28:20.373Z,99310.88
2023-03-26T15:38:57.992Z,99318.38
2023-03-26T15:49:12.455Z,99321.50
2023-03-26T15:59:31.826Z,99333.59
2023-03-26T16:09:52.371Z,99346.25
2023-03-26T16:20:14.083Z,99371.28
2023-03-26T16:30:33.466Z,99387.25
2023-03-26T16:40:38.002Z,99413.78
2023-03-26T16:50:48.740Z,99421.13
2023-03-26T17:01:05.567Z,99444.75
2023-03-26T17:11:23.219Z,99470.09
2023-03-26T17:21:45.769Z,99491.13
2023-03-26T17:31:59.859Z,99506.78
2023-03-26T17:52:56.215Z,99559.25
2023-03-26T18:03:05.055Z,99587.34
2023-03-26T18:13:26.648Z,99609.25
2023-03-26T18:23:36.770Z,99646.88
2023-03-26T18:33:45.953Z,99670.25
2023-03-26T18:43:49.222Z,99696.34
2023-03-26T18:53:57.412Z,99715.66
2023-03-26T19:04:04.003Z,99739.72
2023-03-26T19:14:17.208Z,99753.06
2023-03-26T19:24:22.694Z,99774.16
2023-03-26T19:34:33.527Z,99787.19
2023-03-26T19:44:41.205Z,99807.56
2023-03-26T19:55:03.374Z,99825.09
2023-03-26T20:05:07.746Z,99853.88
2023-03-26T20:15:19.840Z,99872.28
2023-03-26T20:25:30.962Z,99902.56
2023-03-26T20:35:36.687Z,99912.03
2023-03-26T20:45:40.360Z,99934.53
2023-03-26T20:55:46.184Z,99946.69
2023-03-26T21:05:51.430Z,99963.72
2023-03-26T21:15:56.683Z,99979.09
2023-03-26T21:26:08.046Z,100002.19
2023-03-26T21:36:13.661Z,100019.41
2023-03-26T21:46:19.068Z,100046.81
2023-03-26T21:56:39.210Z,100063.28
2023-03-26T22:06:49.089Z,100095.00
2023-03-26T22:28:37.443Z,100153.22
2023-03-26T22:38:41.010Z,100176.44
2023-03-26T22:48:45.905Z,100200.25
2023-03-26T22:58:49.215Z,100232.88
2023-03-26T23:08:54.452Z,100268.22
2023-03-26T23:18:57.576Z,100296.44
2023-03-26T23:29:02.091Z,100310.19
2023-03-26T23:39:05.258Z,100336.59
2023-03-26T23:49:10.464Z,100365.53
2023-03-26T23:59:13.858Z,100404.72
